createdAt,value
2018-06-06T00:00:22.797Z,16.63
2018-06-06T00:01:28.312Z,16.67
2018-06-06T00:02:33.808Z,16.65
2018-06-06T00:03:39.320Z,16.60
2018-06-06T00:04:44.839Z,16.52
2018-06-06T00:05:50.365Z,16.59
2018-06-06T00:06:55.879Z,16.50
2018-06-06T00:08:01.384Z,16.55
2018-06-06T00:09:06.896Z,16.50
2018-06-06T00:10:12.415Z,16.55
2018-06-06T00:11:17.927Z,16.52
2018-06-06T00:12:23.451Z,16.59
2018-06-06T00:13:28.961Z,16.55
2018-06-06T00:14:34.476Z,16.52
2018-06-06T00:15:40.010Z,16.50
2018-06-06T00:16:45.508Z,16.45
2018-06-06T00:17:51.028Z,16.44
2018-06-06T00:18:56.543Z,16.41
2018-06-06T00:20:02.051Z,16.44
2018-06-06T00:21:07.567Z,16.41
2018-06-06T00:22:13.083Z,16.44
2018-06-06T00:23:18.641Z,16.35
2018-06-06T00:24:24.111Z,16.26
2018-06-06T00:25:29.626Z,16.34
2018-06-06T00:26:35.169Z,16.38
2018-06-06T00:27:40.654Z,16.31
2018-06-06T00:28:46.190Z,16.31
2018-06-06T00:29:51.686Z,16.22
2018-06-06T00:30:57.203Z,16.27
2018-06-06T00:32:02.725Z,16.30
2018-06-06T00:33:08.233Z,16.26
2018-06-06T00:34:13.751Z,16.30
2018-06-06T00:35:19.264Z,16.34
2018-06-06T00:36:24.785Z,16.31
2018-06-06T00:37:30.299Z,16.31
2018-06-06T00:38:35.808Z,16.35
2018-06-06T00:39:41.324Z,16.23
2018-06-06T00:40:46.842Z,16.33
2018-06-06T00:41:52.354Z,16.27
2018-06-06T00:42:57.882Z,16.35
2018-06-06T00:44:03.387Z,16.41
2018-06-06T00:45:08.897Z,16.33
2018-06-06T00:46:14.424Z,16.33
2018-06-06T00:47:19.931Z,16.31
2018-06-06T00:48:25.442Z,16.16
2018-06-06T00:49:30.956Z,16.31
2018-06-06T00:50:36.474Z,16.20
2018-06-06T00:51:41.986Z,16.25
2018-06-06T00:52:47.507Z,16.23
2018-06-06T00:53:53.025Z,16.27
2018-06-06T00:54:58.534Z,16.14
2018-06-06T00:56:04.049Z,16.12
2018-06-06T00:57:09.563Z,16.15
2018-06-06T00:58:15.094Z,16.22
2018-06-06T00:59:20.613Z,16.12
2018-06-06T01:00:26.185Z,16.14
2018-06-06T01:01:31.633Z,16.11
2018-06-06T01:02:37.140Z,16.23
2018-06-06T01:03:42.677Z,16.07
2018-06-06T01:04:48.175Z,16.16
2018-06-06T01:05:53.686Z,16.11
2018-06-06T01:06:59.197Z,16.18
2018-06-06T01:08:04.715Z,16.23
2018-06-06T01:09:10.241Z,16.12
2018-06-06T01:10:15.746Z,16.11
2018-06-06T01:11:21.255Z,16.15
2018-06-06T01:12:26.775Z,16.15
2018-06-06T01:13:32.285Z,16.12
2018-06-06T01:14:37.804Z,16.18
2018-06-06T01:15:43.325Z,16.07
2018-06-06T01:16:48.837Z,16.09
2018-06-06T01:17:54.349Z,16.09
2018-06-06T01:18:59.870Z,16.00
2018-06-06T01:20:05.385Z,15.94
2018-06-06T01:21:10.890Z,15.92
2018-06-06T01:22:16.405Z,15.93
2018-06-06T01:23:21.927Z,15.93
2018-06-06T01:24:27.438Z,15.86
2018-06-06T01:25:32.955Z,15.81
2018-06-06T01:26:38.478Z,15.89
2018-06-06T01:27:43.993Z,15.84
2018-06-06T01:28:49.495Z,15.84
2018-06-06T01:29:55.011Z,15.79
2018-06-06T01:31:00.532Z,15.79
2018-06-06T01:32:06.047Z,15.78
2018-06-06T01:33:11.567Z,15.72
2018-06-06T01:34:17.082Z,15.81
2018-06-06T01:35:22.587Z,15.84
2018-06-06T01:36:28.099Z,15.84
2018-06-06T01:37:33.620Z,15.86
2018-06-06T01:38:39.210Z,15.84
2018-06-06T01:39:44.647Z,15.85
2018-06-06T01:40:50.171Z,15.85
2018-06-06T01:41:55.675Z,15.78
2018-06-06T01:43:01.193Z,15.75
2018-06-06T01:44:06.706Z,15.78
2018-06-06T01:45:12.218Z,15.67
2018-06-06T01:46:17.734Z,15.59
2018-06-06T01:47:23.245Z,15.54
2018-06-06T01:48:28.782Z,15.49
2018-06-06T01:49:34.279Z,15.49
2018-06-06T01:50:39.790Z,15.51
2018-06-06T01:51:45.306Z,15.45
2018-06-06T01:52:50.823Z,15.45
2018-06-06T01:53:56.342Z,15.48
2018-06-06T01:55:01.855Z,15.38
2018-06-06T01:56:07.369Z,15.45
2018-06-06T01:57:12.884Z,15.42
2018-06-06T01:58:18.394Z,15.51
2018-06-06T01:59:23.921Z,15.45
2018-06-06T02:00:29.438Z,15.45
2018-06-06T02:01:34.940Z,15.39
2018-06-06T02:02:40.468Z,15.43
2018-06-06T02:03:45.967Z,15.56
2018-06-06T02:04:51.482Z,15.49
2018-06-06T02:05:56.993Z,15.43
2018-06-06T02:07:02.513Z,15.42
2018-06-06T02:08:08.026Z,15.39
2018-06-06T02:09:13.546Z,15.48
2018-06-06T02:10:19.054Z,15.35
2018-06-06T02:11:24.573Z,15.38
2018-06-06T02:12:30.087Z,15.33
2018-06-06T02:13:35.620Z,15.33
2018-06-06T02:14:41.118Z,15.41
2018-06-06T02:15:46.709Z,15.36
2018-06-06T02:16:52.145Z,15.24
2018-06-06T02:17:57.655Z,15.26
2018-06-06T02:19:03.232Z,15.35
2018-06-06T02:20:08.685Z,15.21
2018-06-06T02:21:14.208Z,15.23
2018-06-06T02:22:19.716Z,15.30
2018-06-06T02:23:25.231Z,15.26
2018-06-06T02:24:30.749Z,15.27
2018-06-06T02:25:36.261Z,15.26
2018-06-06T02:26:41.774Z,15.27
2018-06-06T02:27:47.293Z,15.15
2018-06-06T02:28:52.804Z,15.31
2018-06-06T02:29:58.314Z,15.30
2018-06-06T02:31:03.835Z,15.27
2018-06-06T02:32:09.347Z,15.27
2018-06-06T02:33:14.862Z,15.24
2018-06-06T02:34:20.378Z,15.35
2018-06-06T02:35:25.896Z,15.39
2018-06-06T02:36:31.406Z,15.33
2018-06-06T02:37:36.919Z,15.38
2018-06-06T02:38:42.437Z,15.41
2018-06-06T02:39:47.958Z,15.43
2018-06-06T02:40:53.462Z,15.42
2018-06-06T02:41:58.976Z,15.39
2018-06-06T02:43:04.494Z,15.51
2018-06-06T02:44:10.056Z,15.51
2018-06-06T02:45:15.526Z,15.43
2018-06-06T02:46:21.035Z,15.42
2018-06-06T02:47:26.547Z,15.43
2018-06-06T02:48:32.069Z,15.45
2018-06-06T02:49:37.591Z,15.36
2018-06-06T02:50:43.219Z,15.26
2018-06-06T02:51:48.607Z,15.30
2018-06-06T02:52:54.125Z,15.33
2018-06-06T02:53:59.741Z,15.28
2018-06-06T02:55:05.150Z,15.24
2018-06-06T02:56:10.703Z,15.13
2018-06-06T02:57:16.186Z,15.15
2018-06-06T02:58:21.697Z,15.15
2018-06-06T02:59:27.212Z,15.19
2018-06-06T03:00:32.722Z,15.05
2018-06-06T03:01:38.237Z,15.05
2018-06-06T03:02:43.756Z,15.09
2018-06-06T03:03:49.267Z,15.06
2018-06-06T03:04:54.778Z,15.02
2018-06-06T03:06:00.299Z,15.01
2018-06-06T03:07:05.817Z,15.06
2018-06-06T03:08:11.332Z,15.06
2018-06-06T03:09:16.841Z,15.01
2018-06-06T03:10:22.353Z,15.01
2018-06-06T03:11:27.869Z,15.03
2018-06-06T03:12:33.380Z,15.05
2018-06-06T03:13:38.900Z,14.94
2018-06-06T03:14:44.408Z,15.05
2018-06-06T03:15:49.925Z,14.95
2018-06-06T03:16:55.440Z,15.02
2018-06-06T03:18:00.954Z,15.03
2018-06-06T03:19:06.467Z,15.03
2018-06-06T03:20:11.985Z,15.01
2018-06-06T03:21:17.499Z,15.02
2018-06-06T03:22:23.013Z,15.06
2018-06-06T03:23:28.528Z,15.05
2018-06-06T03:24:34.041Z,15.02
2018-06-06T03:25:39.561Z,15.01
2018-06-06T03:26:45.075Z,15.01
2018-06-06T03:27:50.586Z,14.99
2018-06-06T03:28:56.092Z,14.93
2018-06-06T03:30:01.609Z,15.02
2018-06-06T03:31:07.358Z,15.06
2018-06-06T03:32:12.674Z,15.02
2018-06-06T03:33:18.149Z,14.99
2018-06-06T03:34:23.738Z,14.94
2018-06-06T03:35:29.181Z,15.01
2018-06-06T03:36:34.711Z,14.88
2018-06-06T03:37:40.213Z,14.93
2018-06-06T03:38:45.722Z,14.95
2018-06-06T03:39:51.235Z,14.93
2018-06-06T03:40:56.756Z,14.87
2018-06-06T03:42:02.266Z,14.99
2018-06-06T03:43:07.778Z,14.93
2018-06-06T03:44:13.293Z,14.98
2018-06-06T03:45:18.804Z,14.98
2018-06-06T03:46:24.319Z,14.91
2018-06-06T03:47:29.835Z,14.81
2018-06-06T03:48:35.347Z,14.84
2018-06-06T03:49:40.867Z,14.80
2018-06-06T03:50:46.377Z,14.75
2018-06-06T03:51:51.889Z,14.80
2018-06-06T03:52:57.406Z,14.80
2018-06-06T03:54:02.926Z,14.86
2018-06-06T03:55:08.442Z,14.81
2018-06-06T03:56:13.952Z,14.75
2018-06-06T03:57:19.469Z,14.74
2018-06-06T03:58:24.973Z,14.72
2018-06-06T03:59:30.490Z,14.75
2018-06-06T04:00:36.007Z,14.75
2018-06-06T04:01:41.525Z,14.84
2018-06-06T04:02:47.042Z,14.84
2018-06-06T04:03:52.547Z,14.86
2018-06-06T04:04:58.061Z,14.84
2018-06-06T04:06:03.618Z,14.93
2018-06-06T04:07:09.091Z,14.93
2018-06-06T04:08:14.612Z,14.93
2018-06-06T04:09:20.239Z,15.02
2018-06-06T04:10:25.632Z,15.06
2018-06-06T04:11:31.148Z,14.98
2018-06-06T04:12:36.667Z,15.17
2018-06-06T04:13:42.178Z,15.20
2018-06-06T04:14:47.690Z,15.15
2018-06-06T04:15:53.206Z,15.20
2018-06-06T04:16:58.714Z,15.27
2018-06-06T04:18:04.234Z,15.21
2018-06-06T04:19:09.748Z,15.23
2018-06-06T04:20:15.262Z,15.20
2018-06-06T04:21:20.781Z,15.27
2018-06-06T04:22:26.292Z,15.24
2018-06-06T04:23:31.804Z,15.27
2018-06-06T04:24:37.315Z,15.26
2018-06-06T04:25:42.836Z,15.33
2018-06-06T04:26:48.346Z,15.33
2018-06-06T04:27:53.861Z,15.36
2018-06-06T04:28:59.372Z,15.46
2018-06-06T04:30:04.888Z,15.48
2018-06-06T04:31:10.406Z,15.46
2018-06-06T04:32:15.917Z,15.52
2018-06-06T04:33:21.432Z,15.43
2018-06-06T04:34:26.943Z,15.52
2018-06-06T04:35:32.460Z,15.54
2018-06-06T04:36:37.974Z,15.57
2018-06-06T04:37:43.496Z,15.61
2018-06-06T04:38:49.019Z,15.66
2018-06-06T04:39:54.575Z,15.68
2018-06-06T04:41:00.034Z,15.64
2018-06-06T04:42:05.548Z,15.68
2018-06-06T04:43:11.065Z,15.60
2018-06-06T04:44:16.576Z,15.75
2018-06-06T04:45:22.094Z,15.82
2018-06-06T04:46:27.642Z,15.85
2018-06-06T04:47:33.202Z,15.86
2018-06-06T04:48:38.637Z,15.89
2018-06-06T04:49:44.146Z,15.97
2018-06-06T04:50:49.664Z,16.01
2018-06-06T04:51:55.178Z,16.01
2018-06-06T04:53:00.694Z,16.11
2018-06-06T04:54:06.212Z,16.06
2018-06-06T04:55:11.728Z,16.04
2018-06-06T04:56:17.237Z,16.07
2018-06-06T04:57:22.751Z,16.14
2018-06-06T04:58:28.276Z,16.07
2018-06-06T04:59:33.783Z,16.22
2018-06-06T05:00:39.308Z,16.06
2018-06-06T05:01:44.807Z,16.07
2018-06-06T05:02:50.324Z,16.15
2018-06-06T05:03:55.839Z,16.22
2018-06-06T05:05:01.353Z,16.25
2018-06-06T05:06:06.871Z,16.15
2018-06-06T05:07:12.391Z,16.33
2018-06-06T05:08:17.901Z,16.31
2018-06-06T05:09:23.411Z,16.31
2018-06-06T05:10:28.928Z,16.25
2018-06-06T05:11:34.445Z,16.26
2018-06-06T05:12:39.961Z,16.31
2018-06-06T05:13:45.485Z,16.35
2018-06-06T05:14:51.037Z,16.38
2018-06-06T05:15:56.505Z,16.37
2018-06-06T05:17:02.018Z,16.42
2018-06-06T05:18:07.547Z,16.49
2018-06-06T05:19:13.047Z,16.38
2018-06-06T05:20:18.572Z,16.59
2018-06-06T05:21:24.079Z,16.53
2018-06-06T05:22:29.603Z,16.63
2018-06-06T05:23:35.117Z,16.63
2018-06-06T05:24:40.632Z,16.71
2018-06-06T05:25:46.148Z,16.73
2018-06-06T05:26:51.691Z,16.63
2018-06-06T05:27:57.192Z,16.80
2018-06-06T05:29:02.699Z,16.83
2018-06-06T05:30:08.208Z,16.80
2018-06-06T05:31:13.724Z,16.81
2018-06-06T05:32:19.227Z,16.93
2018-06-06T05:33:24.749Z,16.89
2018-06-06T05:34:30.263Z,16.95
2018-06-06T05:35:35.779Z,16.93
2018-06-06T05:36:41.289Z,16.99
2018-06-06T05:37:46.805Z,17.04
2018-06-06T05:38:52.323Z,17.18
2018-06-06T05:39:57.838Z,17.08
2018-06-06T05:41:03.353Z,17.17
2018-06-06T05:42:08.865Z,17.20
2018-06-06T05:43:14.387Z,17.30
2018-06-06T05:44:19.897Z,17.29
2018-06-06T05:45:25.415Z,17.30
2018-06-06T05:46:30.927Z,17.35
2018-06-06T05:47:36.443Z,17.32
2018-06-06T05:48:41.966Z,17.43
2018-06-06T05:49:47.477Z,17.38
2018-06-06T05:50:52.993Z,17.46
2018-06-06T05:51:58.514Z,17.54
2018-06-06T05:53:04.054Z,17.48
2018-06-06T05:54:09.545Z,17.55
2018-06-06T05:55:15.134Z,17.69
2018-06-06T05:56:20.569Z,17.70
2018-06-06T05:57:26.088Z,17.74
2018-06-06T05:58:31.602Z,17.79
2018-06-06T05:59:37.116Z,17.88
2018-06-06T06:00:42.654Z,17.88
2018-06-06T06:01:48.146Z,17.91
2018-06-06T06:02:53.716Z,17.91
2018-06-06T06:03:59.176Z,18.02
2018-06-06T06:05:04.702Z,17.95
2018-06-06T06:06:10.220Z,18.03
2018-06-06T06:07:15.723Z,17.99
2018-06-06T06:08:21.266Z,18.03
2018-06-06T06:09:26.770Z,18.19
2018-06-06T06:10:32.270Z,18.15
2018-06-06T06:11:37.799Z,18.12
2018-06-06T06:12:43.314Z,18.28
2018-06-06T06:13:48.820Z,18.24
2018-06-06T06:14:54.338Z,18.29
2018-06-06T06:15:59.851Z,18.27
2018-06-06T06:17:05.369Z,18.29
2018-06-06T06:18:10.891Z,18.36
2018-06-06T06:19:16.399Z,18.34
2018-06-06T06:20:21.925Z,18.42
2018-06-06T06:21:27.439Z,18.47
2018-06-06T06:22:32.949Z,18.54
2018-06-06T06:23:38.471Z,18.57
2018-06-06T06:24:43.985Z,18.59
2018-06-06T06:25:49.496Z,18.67
2018-06-06T06:26:55.017Z,18.76
2018-06-06T06:28:00.545Z,18.70
2018-06-06T06:29:06.063Z,18.73
2018-06-06T06:30:11.652Z,18.82
2018-06-06T06:31:17.177Z,18.74
2018-06-06T06:32:22.599Z,18.77
2018-06-06T06:33:28.149Z,18.94
2018-06-06T06:34:33.639Z,18.94
2018-06-06T06:35:39.149Z,18.95
2018-06-06T06:36:44.667Z,19.08
2018-06-06T06:37:50.196Z,19.10
2018-06-06T06:38:55.697Z,19.13
2018-06-06T06:40:01.211Z,19.13
2018-06-06T06:41:06.818Z,19.15
2018-06-06T06:42:12.246Z,19.28
2018-06-06T06:43:17.760Z,19.35
2018-06-06T06:44:23.279Z,19.32
2018-06-06T06:45:28.794Z,19.35
2018-06-06T06:46:34.316Z,19.42
2018-06-06T06:47:39.840Z,19.39
2018-06-06T06:48:45.345Z,19.40
2018-06-06T06:49:50.864Z,19.47
2018-06-06T06:50:56.380Z,19.48
2018-06-06T06:52:01.900Z,19.48
2018-06-06T06:53:07.414Z,19.60
2018-06-06T06:54:12.927Z,19.66
2018-06-06T06:55:18.444Z,19.69
2018-06-06T06:56:23.967Z,19.68
2018-06-06T06:57:29.482Z,19.73
2018-06-06T06:58:35.004Z,19.76
2018-06-06T06:59:40.521Z,19.76
2018-06-06T07:00:46.033Z,19.84
2018-06-06T07:01:51.554Z,19.80
2018-06-06T07:02:57.065Z,19.79
2018-06-06T07:04:02.577Z,19.98
2018-06-06T07:05:08.105Z,19.94
2018-06-06T07:06:13.610Z,19.95
2018-06-06T07:07:19.136Z,19.97
2018-06-06T07:08:24.655Z,20.02
2018-06-06T07:09:30.163Z,20.10
2018-06-06T07:10:35.684Z,20.08
2018-06-06T07:11:41.208Z,20.16
2018-06-06T07:12:46.715Z,20.08
2018-06-06T07:13:52.235Z,20.18
2018-06-06T07:14:57.750Z,20.21
2018-06-06T07:16:03.313Z,20.24
2018-06-06T07:17:08.789Z,20.33
2018-06-06T07:18:14.305Z,20.39
2018-06-06T07:19:19.878Z,20.41
2018-06-06T07:20:25.345Z,20.42
2018-06-06T07:21:30.854Z,20.51
2018-06-06T07:22:36.377Z,20.59
2018-06-06T07:23:41.894Z,20.54
2018-06-06T07:24:47.418Z,20.64
2018-06-06T07:25:52.919Z,20.66
2018-06-06T07:26:58.507Z,20.66
2018-06-06T07:28:03.955Z,20.69
2018-06-06T07:29:09.475Z,20.74
2018-06-06T07:30:14.993Z,20.74
2018-06-06T07:31:20.508Z,20.79
2018-06-06T07:32:26.036Z,20.77
2018-06-06T07:33:31.549Z,20.95
2018-06-06T07:34:37.062Z,20.98
2018-06-06T07:35:42.579Z,21.04
2018-06-06T07:36:48.098Z,21.04
2018-06-06T07:37:53.644Z,21.09
2018-06-06T07:38:59.140Z,21.09
2018-06-06T07:40:04.657Z,21.17
2018-06-06T07:41:10.169Z,21.23
2018-06-06T07:42:15.693Z,21.21
2018-06-06T07:43:21.229Z,21.26
2018-06-06T07:44:26.742Z,21.34
2018-06-06T07:45:32.272Z,21.39
2018-06-06T07:46:37.757Z,21.42
2018-06-06T07:47:43.295Z,21.34
2018-06-06T07:48:48.802Z,21.38
2018-06-06T07:49:54.314Z,21.50
2018-06-06T07:50:59.833Z,21.46
2018-06-06T07:52:05.346Z,21.57
2018-06-06T07:53:10.892Z,21.57
2018-06-06T07:54:16.389Z,21.60
2018-06-06T07:55:21.900Z,21.56
2018-06-06T07:56:27.420Z,21.53
2018-06-06T07:57:32.939Z,21.66
2018-06-06T07:58:38.465Z,21.67
2018-06-06T07:59:43.972Z,21.69
2018-06-06T08:00:49.492Z,21.88
2018-06-06T08:01:55.013Z,21.88
2018-06-06T08:03:00.540Z,21.92
2018-06-06T08:04:06.044Z,21.97
2018-06-06T08:05:11.560Z,21.99
2018-06-06T08:06:17.085Z,21.97
2018-06-06T08:07:22.604Z,22.01
2018-06-06T08:08:28.128Z,22.01
2018-06-06T08:09:33.641Z,22.04
2018-06-06T08:10:39.157Z,22.04
2018-06-06T08:11:44.679Z,22.07
2018-06-06T08:12:50.194Z,22.09
2018-06-06T08:13:55.710Z,22.23
2018-06-06T08:15:01.227Z,22.22
2018-06-06T08:16:06.747Z,22.28
2018-06-06T08:17:12.265Z,22.23
2018-06-06T08:18:17.784Z,22.32
2018-06-06T08:19:23.303Z,22.35
2018-06-06T08:20:28.825Z,22.39
2018-06-06T08:21:34.362Z,22.52
2018-06-06T08:22:39.860Z,22.46
2018-06-06T08:23:45.373Z,22.54
2018-06-06T08:24:50.898Z,22.52
2018-06-06T08:25:56.414Z,22.56
2018-06-06T08:27:01.930Z,22.59
2018-06-06T08:28:07.451Z,22.65
2018-06-06T08:29:12.972Z,22.62
2018-06-06T08:30:18.514Z,22.72
2018-06-06T08:31:24.007Z,22.67
2018-06-06T08:32:29.524Z,22.75
2018-06-06T08:33:35.046Z,22.75
2018-06-06T08:34:40.573Z,22.80
2018-06-06T08:35:46.133Z,22.90
2018-06-06T08:36:51.595Z,22.92
2018-06-06T08:37:57.114Z,22.84
2018-06-06T08:39:02.645Z,22.97
2018-06-06T08:40:08.158Z,22.93
2018-06-06T08:41:13.675Z,22.96
2018-06-06T08:42:19.196Z,23.11
2018-06-06T08:43:24.710Z,23.26
2018-06-06T08:44:30.232Z,23.26
2018-06-06T08:45:35.752Z,23.23
2018-06-06T08:46:41.271Z,23.39
2018-06-06T08:47:46.785Z,23.38
2018-06-06T08:48:52.303Z,23.43
2018-06-06T08:49:57.825Z,23.46
2018-06-06T08:51:03.349Z,23.46
2018-06-06T08:52:08.862Z,23.45
2018-06-06T08:53:14.381Z,23.55
2018-06-06T08:54:19.943Z,23.61
2018-06-06T08:55:25.427Z,23.61
2018-06-06T08:56:31.065Z,23.62
2018-06-06T08:57:36.458Z,23.65
2018-06-06T08:58:41.984Z,23.72
2018-06-06T08:59:47.498Z,23.70
2018-06-06T09:00:53.023Z,23.77
2018-06-06T09:01:58.536Z,23.77
2018-06-06T09:03:04.056Z,23.76
2018-06-06T09:04:09.597Z,23.82
2018-06-06T09:05:15.093Z,23.89
2018-06-06T09:06:20.615Z,24.02
2018-06-06T09:07:26.134Z,24.07
2018-06-06T09:08:31.654Z,24.10
2018-06-06T09:09:37.174Z,24.13
2018-06-06T09:10:42.690Z,24.05
2018-06-06T09:11:48.214Z,24.04
2018-06-06T09:12:53.739Z,24.19
2018-06-06T09:13:59.261Z,24.23
2018-06-06T09:15:04.772Z,24.24
2018-06-06T09:16:10.302Z,24.23
2018-06-06T09:17:15.813Z,24.31
2018-06-06T09:18:21.329Z,24.37
2018-06-06T09:19:26.845Z,24.31
2018-06-06T09:20:32.369Z,24.42
2018-06-06T09:21:37.888Z,24.45
2018-06-06T09:22:43.408Z,24.41
2018-06-06T09:23:48.926Z,24.49
2018-06-06T09:24:54.454Z,24.45
2018-06-06T09:25:59.965Z,24.56
2018-06-06T09:27:05.498Z,24.56
2018-06-06T09:28:11.003Z,24.57
2018-06-06T09:29:16.525Z,24.59
2018-06-06T09:30:22.045Z,24.56
2018-06-06T09:31:27.565Z,24.60
2018-06-06T09:32:33.085Z,24.73
2018-06-06T09:33:38.606Z,24.76
2018-06-06T09:34:44.126Z,24.75
2018-06-06T09:35:49.654Z,24.73
2018-06-06T09:36:55.183Z,24.71
2018-06-06T09:38:00.684Z,24.91
2018-06-06T09:39:06.208Z,24.85
2018-06-06T09:40:11.746Z,24.82
2018-06-06T09:41:17.258Z,24.92
2018-06-06T09:42:22.774Z,24.95
2018-06-06T09:43:28.306Z,24.94
2018-06-06T09:44:33.860Z,24.92
2018-06-06T09:45:39.336Z,24.97
2018-06-06T09:46:44.848Z,25.07
2018-06-06T09:47:50.367Z,25.10
2018-06-06T09:48:56.027Z,25.17
2018-06-06T09:50:01.414Z,25.17
2018-06-06T09:51:07.008Z,25.27
2018-06-06T09:52:12.455Z,25.24
2018-06-06T09:53:17.967Z,25.27
2018-06-06T09:54:23.485Z,25.34
2018-06-06T09:55:29.045Z,25.34
2018-06-06T09:56:34.638Z,25.44
2018-06-06T09:57:40.173Z,25.46
2018-06-06T09:58:45.610Z,25.42
2018-06-06T09:59:51.103Z,25.64
2018-06-06T10:00:56.612Z,25.64
2018-06-06T10:02:02.134Z,25.54
2018-06-06T10:03:07.657Z,25.54
2018-06-06T10:04:13.165Z,25.67
2018-06-06T10:05:18.713Z,25.79
2018-06-06T10:06:24.213Z,25.74
2018-06-06T10:07:29.736Z,25.72
2018-06-06T10:08:35.246Z,25.74
2018-06-06T10:09:40.775Z,25.86
2018-06-06T10:10:46.295Z,25.86
2018-06-06T10:11:51.807Z,25.84
2018-06-06T10:12:57.349Z,25.89
2018-06-06T10:14:02.850Z,25.86
2018-06-06T10:15:08.370Z,25.89
2018-06-06T10:16:14.002Z,26.01
2018-06-06T10:17:19.413Z,25.98
2018-06-06T10:18:24.959Z,26.15
2018-06-06T10:19:30.450Z,26.15
2018-06-06T10:20:36.083Z,26.06
2018-06-06T10:21:41.499Z,26.15
2018-06-06T10:22:47.016Z,26.11
2018-06-06T10:23:52.537Z,26.22
2018-06-06T10:24:58.061Z,26.24
2018-06-06T10:26:03.600Z,26.21
2018-06-06T10:27:09.096Z,26.28
2018-06-06T10:28:14.619Z,26.31
2018-06-06T10:29:20.154Z,26.36
2018-06-06T10:30:25.668Z,26.42
2018-06-06T10:31:31.209Z,26.47
2018-06-06T10:32:36.806Z,26.52
2018-06-06T10:33:42.455Z,26.55
2018-06-06T10:34:47.754Z,26.62
2018-06-06T10:35:53.379Z,26.67
2018-06-06T10:36:58.920Z,26.77
2018-06-06T10:38:04.478Z,26.83
2018-06-06T10:39:09.897Z,26.79
2018-06-06T10:40:15.548Z,26.74
2018-06-06T10:41:21.066Z,26.81
2018-06-06T10:42:26.504Z,26.76
2018-06-06T10:43:35.292Z,26.91
2018-06-06T10:44:37.460Z,26.99
2018-06-06T10:45:43.110Z,27.04
2018-06-06T10:46:48.533Z,27.02
2018-06-06T10:47:54.031Z,26.99
2018-06-06T10:48:59.536Z,26.98
2018-06-06T10:50:05.112Z,27.04
2018-06-06T10:51:10.578Z,26.98
2018-06-06T10:52:16.208Z,26.98
2018-06-06T10:53:21.691Z,26.96
2018-06-06T10:54:27.221Z,27.02
2018-06-06T10:55:32.662Z,27.02
2018-06-06T10:56:38.165Z,27.11
2018-06-06T10:57:43.693Z,27.13
2018-06-06T10:58:49.258Z,27.17
2018-06-06T10:59:54.752Z,27.20
2018-06-06T11:01:00.258Z,27.23
2018-06-06T11:02:05.811Z,27.26
2018-06-06T11:03:11.297Z,27.36
2018-06-06T11:04:16.823Z,27.32
2018-06-06T11:05:22.349Z,27.31
2018-06-06T11:06:27.860Z,27.38
2018-06-06T11:07:33.380Z,27.43
2018-06-06T11:08:38.918Z,27.54
2018-06-06T11:09:44.421Z,27.62
2018-06-06T11:10:49.963Z,27.70
2018-06-06T11:11:55.475Z,27.74
2018-06-06T11:13:00.989Z,27.74
2018-06-06T11:14:06.523Z,27.76
2018-06-06T11:15:12.027Z,27.74
2018-06-06T11:16:17.555Z,27.80
2018-06-06T11:17:23.082Z,27.85
2018-06-06T11:18:28.601Z,27.94
2018-06-06T11:19:34.120Z,27.99
2018-06-06T11:20:39.640Z,27.92
2018-06-06T11:21:45.164Z,28.03
2018-06-06T11:22:50.681Z,28.16
2018-06-06T11:23:56.204Z,28.21
2018-06-06T11:25:01.727Z,28.14
2018-06-06T11:26:07.254Z,28.11
2018-06-06T11:27:12.772Z,28.11
2018-06-06T11:28:18.303Z,28.21
2018-06-06T11:29:23.821Z,28.11
2018-06-06T11:30:29.343Z,28.11
2018-06-06T11:31:34.871Z,28.10
2018-06-06T11:32:40.382Z,28.11
2018-06-06T11:33:45.904Z,28.19
2018-06-06T11:34:51.468Z,28.23
2018-06-06T11:35:56.946Z,28.26
2018-06-06T11:37:02.481Z,28.35
2018-06-06T11:38:08.005Z,28.43
2018-06-06T11:39:13.514Z,28.58
2018-06-06T11:40:19.036Z,28.58
2018-06-06T11:41:24.557Z,28.56
2018-06-06T11:42:30.082Z,28.58
2018-06-06T11:43:35.604Z,28.66
2018-06-06T11:44:41.126Z,28.69
2018-06-06T11:45:46.644Z,28.66
2018-06-06T11:46:52.179Z,28.70
2018-06-06T11:47:57.692Z,28.75
2018-06-06T11:49:03.217Z,28.84
2018-06-06T11:50:08.739Z,28.77
2018-06-06T11:51:14.284Z,28.78
2018-06-06T11:52:19.811Z,28.88
2018-06-06T11:53:25.303Z,28.87
2018-06-06T11:54:30.835Z,28.96
2018-06-06T11:55:36.348Z,29.03
2018-06-06T11:56:41.871Z,29.07
2018-06-06T11:57:47.401Z,29.13
2018-06-06T11:58:53.003Z,29.10
2018-06-06T11:59:58.444Z,29.11
2018-06-06T12:01:04.027Z,29.20
2018-06-06T12:02:09.491Z,29.19
2018-06-06T12:03:15.004Z,29.25
2018-06-06T12:04:20.545Z,29.37
2018-06-06T12:05:26.060Z,29.38
2018-06-06T12:06:31.583Z,29.31
2018-06-06T12:07:37.109Z,29.19
2018-06-06T12:08:42.622Z,29.26
2018-06-06T12:09:48.200Z,29.26
2018-06-06T12:10:53.672Z,29.20
2018-06-06T12:11:59.204Z,29.20
2018-06-06T12:13:04.712Z,29.19
2018-06-06T12:14:10.229Z,29.29
2018-06-06T12:15:15.763Z,29.25
2018-06-06T12:16:21.284Z,29.28
2018-06-06T12:17:26.827Z,29.43
2018-06-06T12:18:32.321Z,29.49
2018-06-06T12:19:37.909Z,29.38
2018-06-06T12:20:43.372Z,29.44
2018-06-06T12:21:48.892Z,29.43
2018-06-06T12:22:54.416Z,29.44
2018-06-06T12:23:59.943Z,29.55
2018-06-06T12:25:05.469Z,29.65
2018-06-06T12:26:10.986Z,29.75
2018-06-06T12:27:16.503Z,29.72
2018-06-06T12:28:22.030Z,29.74
2018-06-06T12:29:27.564Z,29.77
2018-06-06T12:30:33.096Z,29.71
2018-06-06T12:31:38.636Z,29.74
2018-06-06T12:32:44.133Z,29.74
2018-06-06T12:33:49.643Z,29.70
2018-06-06T12:34:55.168Z,29.77
2018-06-06T12:36:00.690Z,29.78
2018-06-06T12:37:06.214Z,29.70
2018-06-06T12:38:11.743Z,29.66
2018-06-06T12:39:17.256Z,29.71
2018-06-06T12:40:22.780Z,29.70
2018-06-06T12:41:28.304Z,29.82
2018-06-06T12:42:33.838Z,29.89
2018-06-06T12:43:39.350Z,29.81
2018-06-06T12:44:44.870Z,29.87
2018-06-06T12:45:50.401Z,29.87
2018-06-06T12:46:55.929Z,30.00
2018-06-06T12:48:01.457Z,30.03
2018-06-06T12:49:06.966Z,29.97
2018-06-06T12:50:12.494Z,29.93
2018-06-06T12:51:18.030Z,29.96
2018-06-06T12:52:23.534Z,29.96
2018-06-06T12:53:29.064Z,29.94
2018-06-06T12:54:34.585Z,29.89
2018-06-06T12:55:40.107Z,29.92
2018-06-06T12:56:45.629Z,29.90
2018-06-06T12:57:51.156Z,29.87
2018-06-06T12:58:56.674Z,29.82
2018-06-06T13:00:02.207Z,29.78
2018-06-06T13:01:07.727Z,29.82
2018-06-06T13:02:13.337Z,29.82
2018-06-06T13:03:18.771Z,29.93
2018-06-06T13:04:24.298Z,29.84
2018-06-06T13:05:29.816Z,29.86
2018-06-06T13:06:35.341Z,29.79
2018-06-06T13:07:40.866Z,29.75
2018-06-06T13:08:46.388Z,29.93
2018-06-06T13:09:51.910Z,29.89
2018-06-06T13:10:57.447Z,29.94
2018-06-06T13:12:02.954Z,29.90
2018-06-06T13:13:08.492Z,29.87
2018-06-06T13:14:14.007Z,29.94
2018-06-06T13:15:19.526Z,29.99
2018-06-06T13:16:25.054Z,29.99
2018-06-06T13:17:30.583Z,30.00
2018-06-06T13:18:36.092Z,29.94
2018-06-06T13:19:41.619Z,29.97
2018-06-06T13:20:47.140Z,30.03
2018-06-06T13:21:52.664Z,29.92
2018-06-06T13:22:58.189Z,29.92
2018-06-06T13:24:03.825Z,29.99
2018-06-06T13:25:09.235Z,29.86
2018-06-06T13:26:14.764Z,29.89
2018-06-06T13:27:20.280Z,29.96
2018-06-06T13:28:25.812Z,29.90
2018-06-06T13:29:31.328Z,29.87
2018-06-06T13:30:36.855Z,29.87
2018-06-06T13:31:42.391Z,29.77
2018-06-06T13:32:47.893Z,29.86
2018-06-06T13:33:53.430Z,29.82
2018-06-06T13:34:58.960Z,29.78
2018-06-06T13:36:04.471Z,29.79
2018-06-06T13:37:09.991Z,29.82
2018-06-06T13:38:15.523Z,29.82
2018-06-06T13:39:21.041Z,29.82
2018-06-06T13:40:26.562Z,29.89
2018-06-06T13:41:32.081Z,29.89
2018-06-06T13:42:37.606Z,29.82
2018-06-06T13:43:43.130Z,29.89
2018-06-06T13:44:48.657Z,29.86
2018-06-06T13:45:54.174Z,29.86
2018-06-06T13:46:59.707Z,29.90
2018-06-06T13:48:05.225Z,29.96
2018-06-06T13:49:10.743Z,29.93
2018-06-06T13:50:16.280Z,29.90
2018-06-06T13:51:21.795Z,29.86
2018-06-06T13:52:27.332Z,29.93
2018-06-06T13:53:32.836Z,29.87
2018-06-06T13:54:38.418Z,29.81
2018-06-06T13:55:43.884Z,29.82
2018-06-06T13:56:49.418Z,29.75
2018-06-06T13:57:54.933Z,29.74
2018-06-06T13:59:00.461Z,29.72
2018-06-06T14:00:05.985Z,29.70
2018-06-06T14:01:11.548Z,29.71
2018-06-06T14:02:17.027Z,29.70
2018-06-06T14:03:22.551Z,29.71